Time;durP1;ratioP1;P1;durP2;ratioP2;P2;SDS_P1;SDS_P2;PMS_P1;PMS_P2;Temp;Humidity;BMP_temperature;BMP_pressure;BME280_temperature;BME280_humidity;BME280_pressure;Samples;Min_cycle;Max_cycle;Signal;HPM_P1;HPM_P2
2022/04/07 00:02:19;;;;;;;16.98;4.95;;;;;;;;;;5051557;28;20356;-60
2022/04/07 00:04:45;;;;;;;15.07;3.80;;;;;;;;;;5048467;28;20037;-60
2022/04/07 00:07:12;;;;;;;14.45;3.83;;;;;;;;;;5082271;28;20039;-60
2022/04/07 00:09:39;;;;;;;14.52;3.72;;;;;;;;;;5080626;28;20072;-60
2022/04/07 00:12:06;;;;;;;11.00;3.78;;;;;;;;;;5073056;28;20037;-60
2022/04/07 00:14:32;;;;;;;11.13;3.03;;;;;;;;;;5054947;28;20151;-61
2022/04/07 00:17:00;;;;;;;11.70;3.97;;;;;;;;;;5053483;28;20076;-61
2022/04/07 00:19:27;;;;;;;12.25;4.18;;;;;;;;;;5065060;28;20028;-60
2022/04/07 00:21:54;;;;;;;12.55;3.70;;;;;;;;;;5075299;28;20050;-61
2022/04/07 00:24:22;;;;;;;10.90;3.58;;;;;;;;;;5077061;28;20513;-60
2022/04/07 00:26:49;;;;;;;14.88;4.50;;;;;;;;;;5076972;28;20044;-60
2022/04/07 00:29:17;;;;;;;12.40;4.18;;;;;;;;;;5059072;28;20032;-60
2022/04/07 00:31:45;;;;;;;19.33;4.18;;;;;;;;;;5051509;28;20048;-61
2022/04/07 00:34:12;;;;;;;19.35;4.80;;;;;;;;;;5066194;28;20048;-60
2022/04/07 00:36:39;;;;;;;16.20;4.30;;;;;;;;;;5080772;28;20433;-61
2022/04/07 00:39:06;;;;;;;18.90;6.00;;;;;;;;;;5058206;28;20122;-60
2022/04/07 00:41:36;;;;;;;16.48;5.32;;;;;;;;;;5078528;28;20463;-61
2022/04/07 00:44:02;;;;;;;16.48;5.20;;;;;;;;;;5057086;28;20078;-60
2022/04/07 00:46:29;;;;;;;15.20;5.43;;;;;;;;;;5055541;28;20044;-60
2022/04/07 00:48:55;;;;;;;12.23;4.85;;;;;;;;;;5078344;28;20546;-60
2022/04/07 00:51:22;;;;;;;20.48;5.10;;;;;;;;;;5073696;28;20032;-60
2022/04/07 00:53:48;;;;;;;15.98;5.97;;;;;;;;;;5066603;28;20047;-60
2022/04/07 00:56:15;;;;;;;16.17;6.07;;;;;;;;;;5078271;28;20082;-60
2022/04/07 00:58:42;;;;;;;20.77;6.65;;;;;;;;;;5077787;28;20036;-60
2022/04/07 01:01:09;;;;;;;18.02;5.88;;;;;;;;;;5041330;28;20449;-61
2022/04/07 01:03:36;;;;;;;21.45;6.47;;;;;;;;;;5074849;28;20370;-60
2022/04/07 01:06:03;;;;;;;15.65;6.45;;;;;;;;;;5058394;28;20064;-61
2022/04/07 01:08:30;;;;;;;22.60;6.82;;;;;;;;;;5074376;28;20052;-60
2022/04/07 01:10:56;;;;;;;20.13;6.03;;;;;;;;;;5058709;28;20040;-60
2022/04/07 01:13:23;;;;;;;22.33;6.80;;;;;;;;;;5075248;28;20032;-60
2022/04/07 01:15:50;;;;;;;19.50;6.00;;;;;;;;;;5056434;28;20252;-60
2022/04/07 01:18:19;;;;;;;14.27;5.68;;;;;;;;;;5072632;28;20068;-60
2022/04/07 01:20:46;;;;;;;18.45;6.38;;;;;;;;;;5077536;28;20044;-60
2022/04/07 01:23:13;;;;;;;17.23;5.80;;;;;;;;;;5074565;28;20494;-60
2022/04/07 01:25:39;;;;;;;18.02;6.78;;;;;;;;;;5077605;28;20109;-60
2022/04/07 01:28:06;;;;;;;27.40;7.72;;;;;;;;;;5082981;28;20437;-60
2022/04/07 01:30:34;;;;;;;16.35;5.60;;;;;;;;;;5081411;28;20101;-62
2022/04/07 01:33:02;;;;;;;18.17;6.57;;;;;;;;;;5057033;28;20051;-60
2022/04/07 01:35:28;;;;;;;25.48;7.25;;;;;;;;;;5084757;28;20505;-60
2022/04/07 01:37:57;;;;;;;25.60;7.63;;;;;;;;;;5072339;28;20032;-60
2022/04/07 01:40:26;;;;;;;26.80;7.13;;;;;;;;;;5061938;28;20097;-60
2022/04/07 01:42:53;;;;;;;22.35;7.63;;;;;;;;;;5052711;28;20055;-61
2022/04/07 01:45:21;;;;;;;24.80;6.20;;;;;;;;;;5081027;28;20120;-61
2022/04/07 01:47:48;;;;;;;19.60;6.57;;;;;;;;;;5078174;28;20412;-60
2022/04/07 01:50:16;;;;;;;19.23;6.75;;;;;;;;;;5080863;28;20036;-60
2022/04/07 01:52:43;;;;;;;29.33;7.40;;;;;;;;;;5082639;28;20047;-60
2022/04/07 01:55:10;;;;;;;31.45;6.45;;;;;;;;;;5086239;28;20490;-61
2022/04/07 01:57:38;;;;;;;29.52;7.75;;;;;;;;;;5057561;28;20134;-60
2022/04/07 02:00:05;;;;;;;22.50;6.55;;;;;;;;;;5077239;28;20044;-60
2022/04/07 02:02:32;;;;;;;21.20;6.93;;;;;;;;;;5077517;28;20413;-61
2022/04/07 02:05:10;;;;;;;21.75;6.10;;;;;;;;;;5078412;28;20036;-60
2022/04/07 02:07:37;;;;;;;21.95;6.93;;;;;;;;;;5061024;28;20058;-61
2022/04/07 02:10:04;;;;;;;26.25;6.15;;;;;;;;;;5082734;28;20028;-60
2022/04/07 02:12:33;;;;;;;21.60;7.32;;;;;;;;;;5073469;28;20081;-61
2022/04/07 02:15:00;;;;;;;17.02;6.18;;;;;;;;;;5067999;28;20040;-60
2022/04/07 02:17:27;;;;;;;17.60;6.40;;;;;;;;;;5082457;28;20401;-60
2022/04/07 02:19:55;;;;;;;17.27;7.18;;;;;;;;;;5059438;28;20044;-60
2022/04/07 02:22:22;;;;;;;17.23;6.88;;;;;;;;;;5049994;28;20040;-61
2022/04/07 02:24:49;;;;;;;24.95;6.80;;;;;;;;;;5055703;28;20032;-61
2022/04/07 02:27:16;;;;;;;32.33;7.55;;;;;;;;;;5077445;28;20237;-61
2022/04/07 02:29:43;;;;;;;21.40;7.00;;;;;;;;;;5078875;28;20393;-60
2022/04/07 02:32:14;;;;;;;23.73;7.40;;;;;;;;;;5043524;28;20048;-60
2022/04/07 02:34:40;;;;;;;25.23;7.35;;;;;;;;;;5089245;28;20048;-60
2022/04/07 02:37:07;;;;;;;18.20;5.82;;;;;;;;;;5066626;28;20046;-60
2022/04/07 02:39:34;;;;;;;22.85;7.70;;;;;;;;;;5075367;28;20098;-61
2022/04/07 02:42:01;;;;;;;21.25;6.75;;;;;;;;;;5062078;28;20036;-60
2022/04/07 02:44:29;;;;;;;23.58;6.60;;;;;;;;;;5063730;28;20040;-60
2022/04/07 02:46:56;;;;;;;22.45;6.50;;;;;;;;;;5067940;28;20044;-60
2022/04/07 02:49:24;;;;;;;19.13;6.25;;;;;;;;;;5084714;28;20485;-60
2022/04/07 02:51:51;;;;;;;22.38;6.50;;;;;;;;;;5053238;28;20486;-61
2022/04/07 02:54:18;;;;;;;18.92;6.75;;;;;;;;;;5056183;28;20036;-61
2022/04/07 02:56:45;;;;;;;20.60;6.78;;;;;;;;;;5081274;28;20126;-61
2022/04/07 02:59:11;;;;;;;18.73;4.80;;;;;;;;;;5096417;28;20070;-61
2022/04/07 03:01:39;;;;;;;12.60;6.05;;;;;;;;;;5075303;28;20040;-61
2022/04/07 03:04:09;;;;;;;19.00;6.32;;;;;;;;;;5035424;28;20044;-61
2022/04/07 03:06:36;;;;;;;14.80;5.70;;;;;;;;;;5050805;28;20494;-61
2022/04/07 03:09:02;;;;;;;14.63;5.50;;;;;;;;;;5081518;28;20032;-61
2022/04/07 03:11:29;;;;;;;13.68;6.07;;;;;;;;;;5078548;28;20040;-61
2022/04/07 03:13:55;;;;;;;16.15;6.30;;;;;;;;;;5075784;28;20044;-61
2022/04/07 03:16:22;;;;;;;24.95;6.55;;;;;;;;;;5080295;28;20578;-61
2022/04/07 03:18:49;;;;;;;23.08;7.00;;;;;;;;;;5065616;28;20037;-61
2022/04/07 03:21:15;;;;;;;31.77;7.20;;;;;;;;;;5091739;28;20048;-60
2022/04/07 03:23:42;;;;;;;19.13;6.60;;;;;;;;;;5049619;28;20141;-63
2022/04/07 03:26:09;;;;;;;26.65;6.65;;;;;;;;;;5078545;28;20035;-61
2022/04/07 03:28:37;;;;;;;17.10;6.47;;;;;;;;;;5056147;28;20520;-60
2022/04/07 03:31:03;;;;;;;16.90;5.15;;;;;;;;;;5050781;28;20106;-60
2022/04/07 03:33:31;;;;;;;23.58;6.38;;;;;;;;;;5060347;28;20094;-60
2022/04/07 03:35:58;;;;;;;25.02;6.72;;;;;;;;;;5037614;28;20047;-60
2022/04/07 03:38:25;;;;;;;17.35;5.55;;;;;;;;;;5081993;28;20599;-60
2022/04/07 03:40:52;;;;;;;23.58;7.18;;;;;;;;;;5087699;28;20076;-60
2022/04/07 03:43:18;;;;;;;18.20;6.15;;;;;;;;;;5075760;28;20398;-60
2022/04/07 03:45:46;;;;;;;23.70;7.95;;;;;;;;;;5063583;28;20044;-60
2022/04/07 03:48:13;;;;;;;24.50;6.75;;;;;;;;;;5047754;28;20039;-60
2022/04/07 03:50:40;;;;;;;21.67;6.15;;;;;;;;;;5074951;28;20036;-60
2022/04/07 03:53:08;;;;;;;27.35;7.40;;;;;;;;;;5052841;28;20032;-62
2022/04/07 03:55:37;;;;;;;28.08;7.28;;;;;;;;;;5060030;28;20382;-60
2022/04/07 03:58:04;;;;;;;27.23;9.38;;;;;;;;;;5077594;28;20532;-59
2022/04/07 04:00:31;;;;;;;21.00;8.27;;;;;;;;;;5055291;28;20478;-60
2022/04/07 04:02:58;;;;;;;21.75;7.90;;;;;;;;;;5049560;28;20036;-60
2022/04/07 04:05:25;;;;;;;21.15;8.07;;;;;;;;;;5080539;28;20401;-60
2022/04/07 04:07:52;;;;;;;23.92;7.90;;;;;;;;;;5053098;28;20040;-60
2022/04/07 04:10:19;;;;;;;26.63;8.70;;;;;;;;;;5060906;28;20032;-60
2022/04/07 04:12:46;;;;;;;31.67;9.00;;;;;;;;;;5082345;28;20498;-60
2022/04/07 04:15:13;;;;;;;24.50;8.80;;;;;;;;;;5060804;28;20037;-61
2022/04/07 04:17:42;;;;;;;31.83;9.80;;;;;;;;;;5093090;28;20059;-60
2022/04/07 04:20:10;;;;;;;22.42;8.18;;;;;;;;;;5076359;28;20528;-60
2022/04/07 04:22:37;;;;;;;29.70;9.38;;;;;;;;;;5079540;28;20422;-60
2022/04/07 04:25:05;;;;;;;28.60;10.95;;;;;;;;;;5074499;28;20513;-61
2022/04/07 04:27:35;;;;;;;37.47;9.32;;;;;;;;;;5060838;28;20036;-60
2022/04/07 04:30:02;;;;;;;23.55;9.40;;;;;;;;;;5073243;28;20482;-60
2022/04/07 04:32:29;;;;;;;31.48;8.18;;;;;;;;;;5066057;28;20041;-60
2022/04/07 04:34:56;;;;;;;29.75;10.00;;;;;;;;;;5078457;28;20230;-60
2022/04/07 04:37:26;;;;;;;29.77;9.30;;;;;;;;;;5072030;28;20094;-60
2022/04/07 04:39:56;;;;;;;30.13;8.88;;;;;;;;;;5070842;28;20119;-61
2022/04/07 04:42:22;;;;;;;29.00;10.15;;;;;;;;;;5077702;28;20088;-60
2022/04/07 04:44:49;;;;;;;29.27;8.95;;;;;;;;;;5065862;28;20032;-60
2022/04/07 04:47:18;;;;;;;27.67;8.77;;;;;;;;;;5066233;28;20044;-60
2022/04/07 04:49:46;;;;;;;28.80;8.98;;;;;;;;;;5072707;28;20040;-60
2022/04/07 04:52:13;;;;;;;28.48;9.40;;;;;;;;;;5067551;28;20039;-60
2022/04/07 04:54:40;;;;;;;27.30;9.23;;;;;;;;;;5035229;28;20032;-60
2022/04/07 04:57:08;;;;;;;37.63;8.80;;;;;;;;;;5082936;28;20040;-60
2022/04/07 04:59:35;;;;;;;35.03;8.75;;;;;;;;;;5067233;28;20079;-60
2022/04/07 05:02:04;;;;;;;18.73;7.05;;;;;;;;;;5056240;28;20044;-60
2022/04/07 05:04:31;;;;;;;17.90;7.28;;;;;;;;;;5077066;28;20035;-60
2022/04/07 05:06:58;;;;;;;24.08;7.18;;;;;;;;;;5054568;28;20367;-60
2022/04/07 05:09:25;;;;;;;15.27;4.60;;;;;;;;;;5058061;28;20032;-60
2022/04/07 05:11:52;;;;;;;18.10;5.35;;;;;;;;;;5064735;28;20032;-60
2022/04/07 05:14:18;;;;;;;15.05;4.38;;;;;;;;;;5082685;28;20493;-60
2022/04/07 05:16:44;;;;;;;12.70;4.32;;;;;;;;;;5081934;28;20386;-60
2022/04/07 05:19:11;;;;;;;12.35;3.30;;;;;;;;;;5042729;28;20411;-60
2022/04/07 05:21:41;;;;;;;6.10;2.42;;;;;;;;;;5047173;28;20149;-60
2022/04/07 05:24:08;;;;;;;14.35;2.55;;;;;;;;;;5066493;28;20106;-60
2022/04/07 05:26:36;;;;;;;6.32;2.35;;;;;;;;;;5057001;28;20389;-59
2022/04/07 05:29:04;;;;;;;6.50;2.38;;;;;;;;;;5077135;28;20099;-60
2022/04/07 05:31:31;;;;;;;10.88;2.67;;;;;;;;;;5055519;28;20036;-60
2022/04/07 05:33:59;;;;;;;10.40;1.90;;;;;;;;;;5051477;28;20510;-60
2022/04/07 05:36:26;;;;;;;4.35;1.58;;;;;;;;;;5063086;28;20395;-60
2022/04/07 05:38:53;;;;;;;5.75;1.98;;;;;;;;;;5061733;28;20045;-60
2022/04/07 05:41:21;;;;;;;4.13;2.00;;;;;;;;;;5060486;28;20090;-62
2022/04/07 05:43:48;;;;;;;5.88;2.38;;;;;;;;;;5054795;28;20051;-60
2022/04/07 05:46:15;;;;;;;4.90;2.13;;;;;;;;;;5063001;28;20039;-60
2022/04/07 05:48:42;;;;;;;6.40;1.75;;;;;;;;;;5076265;28;20040;-60
2022/04/07 05:51:09;;;;;;;7.65;2.58;;;;;;;;;;5053324;28;20389;-60
2022/04/07 05:53:38;;;;;;;5.10;1.48;;;;;;;;;;5037305;28;20040;-61
2022/04/07 05:56:05;;;;;;;6.60;1.77;;;;;;;;;;5074794;28;20127;-60
2022/04/07 05:58:32;;;;;;;6.85;1.75;;;;;;;;;;5034213;28;20043;-61
2022/04/07 06:00:59;;;;;;;6.40;1.98;;;;;;;;;;5054888;28;20037;-60
2022/04/07 06:03:25;;;;;;;9.35;2.67;;;;;;;;;;5062800;28;20040;-61
2022/04/07 06:05:54;;;;;;;2.72;1.23;;;;;;;;;;5073234;28;20036;-60
2022/04/07 06:08:23;;;;;;;9.45;1.80;;;;;;;;;;5073368;28;20044;-60
2022/04/07 06:10:50;;;;;;;5.47;1.63;;;;;;;;;;5083583;28;20513;-60
2022/04/07 06:13:18;;;;;;;3.67;1.40;;;;;;;;;;5053956;28;20043;-60
2022/04/07 06:15:45;;;;;;;8.20;1.85;;;;;;;;;;5040391;28;20300;-60
2022/04/07 06:18:13;;;;;;;7.28;1.55;;;;;;;;;;5052449;28;20052;-60
2022/04/07 06:20:41;;;;;;;3.80;1.85;;;;;;;;;;5067691;28;20044;-59
2022/04/07 06:23:09;;;;;;;6.28;2.00;;;;;;;;;;5058648;28;20040;-60
2022/04/07 06:25:39;;;;;;;7.55;2.22;;;;;;;;;;5068741;28;20131;-59
2022/04/07 06:28:06;;;;;;;5.22;1.55;;;;;;;;;;5066842;28;20032;-60
2022/04/07 06:30:37;;;;;;;6.90;2.88;;;;;;;;;;5051859;28;20115;-61
2022/04/07 06:33:05;;;;;;;18.05;5.03;;;;;;;;;;5063767;28;20167;-61
2022/04/07 06:35:40;;;;;;;5.45;2.40;;;;;;;;;;5063504;28;20399;-62
2022/04/07 06:38:07;;;;;;;7.13;2.00;;;;;;;;;;5083280;28;20512;-60
2022/04/07 06:40:33;;;;;;;7.82;2.13;;;;;;;;;;5065303;28;20498;-60
2022/04/07 06:43:00;;;;;;;4.20;1.55;;;;;;;;;;5077025;28;20040;-60
2022/04/07 06:45:28;;;;;;;8.23;2.15;;;;;;;;;;5064265;28;20047;-62
2022/04/07 06:47:56;;;;;;;8.25;2.08;;;;;;;;;;5059592;28;20052;-60
2022/04/07 06:50:26;;;;;;;7.82;2.10;;;;;;;;;;5067425;28;20036;-60
2022/04/07 06:52:53;;;;;;;5.55;3.42;;;;;;;;;;5083177;28;20040;-60
2022/04/07 06:55:20;;;;;;;7.97;1.77;;;;;;;;;;5085686;28;20094;-60
2022/04/07 06:58:01;;;;;;;8.10;1.63;;;;;;;;;;5073147;28;20461;-60
2022/04/07 07:00:32;;;;;;;5.75;1.85;;;;;;;;;;5053013;28;20091;-60
2022/04/07 07:03:02;;;;;;;5.13;2.15;;;;;;;;;;5073065;28;20052;-60
2022/04/07 07:05:33;;;;;;;15.77;2.30;;;;;;;;;;5072749;28;20282;-60
2022/04/07 07:08:12;;;;;;;9.50;2.63;;;;;;;;;;5056023;28;20104;-60
2022/04/07 07:10:40;;;;;;;5.30;2.03;;;;;;;;;;5048239;28;20039;-60
2022/04/07 07:13:10;;;;;;;10.50;2.72;;;;;;;;;;5069824;28;20047;-60
2022/04/07 07:15:38;;;;;;;9.65;1.90;;;;;;;;;;5055551;28;20036;-61
2022/04/07 07:18:06;;;;;;;10.25;2.55;;;;;;;;;;5071677;28;20256;-62
2022/04/07 07:20:36;;;;;;;4.78;1.50;;;;;;;;;;5065907;28;20040;-60
2022/04/07 07:23:03;;;;;;;6.75;2.50;;;;;;;;;;5071569;28;20119;-61
2022/04/07 07:25:33;;;;;;;9.02;2.60;;;;;;;;;;5039508;28;20051;-61
2022/04/07 07:28:04;;;;;;;6.18;1.85;;;;;;;;;;5058262;28;20394;-60
2022/04/07 07:30:38;;;;;;;7.38;1.73;;;;;;;;;;5060270;28;20032;-60
2022/04/07 07:33:08;;;;;;;;;;;;;;;;;;5036055;28;20043;-61
2022/04/07 07:35:37;;;;;;;11.23;2.47;;;;;;;;;;5069378;28;19960;-60
2022/04/07 07:38:04;;;;;;;9.65;2.78;;;;;;;;;;5081039;28;20039;-60
2022/04/07 07:40:33;;;;;;;8.82;1.90;;;;;;;;;;5047708;28;20040;-60
2022/04/07 07:43:01;;;;;;;4.93;2.03;;;;;;;;;;5045068;28;20398;-60
2022/04/07 07:45:32;;;;;;;4.30;1.80;;;;;;;;;;5079840;28;20516;-61
2022/04/07 07:47:59;;;;;;;5.22;2.17;;;;;;;;;;5083863;28;20435;-60
2022/04/07 07:50:26;;;;;;;7.80;2.83;;;;;;;;;;5055696;28;20142;-60
2022/04/07 07:52:54;;;;;;;8.93;2.97;;;;;;;;;;5037411;28;20043;-60
2022/04/07 07:55:24;;;;;;;9.05;2.63;;;;;;;;;;5043154;28;20047;-60
2022/04/07 07:57:52;;;;;;;9.00;3.15;;;;;;;;;;5046341;28;20044;-61
2022/04/07 08:00:19;;;;;;;4.20;1.63;;;;;;;;;;5037283;28;20090;-61
2022/04/07 08:02:46;;;;;;;5.47;1.98;;;;;;;;;;5054408;28;20102;-60
2022/04/07 08:05:14;;;;;;;7.32;1.98;;;;;;;;;;5054286;28;20454;-61
2022/04/07 08:07:42;;;;;;;5.50;2.60;;;;;;;;;;5050132;28;20422;-60
2022/04/07 08:10:12;;;;;;;9.82;2.03;;;;;;;;;;5048765;28;20035;-62
2022/04/07 08:12:43;;;;;;;7.30;1.77;;;;;;;;;;5048277;28;20040;-62
2022/04/07 08:15:13;;;;;;;6.00;1.90;;;;;;;;;;5037294;28;20408;-60
2022/04/07 08:17:43;;;;;;;5.18;1.88;;;;;;;;;;5032001;28;20048;-60
2022/04/07 08:20:11;;;;;;;9.63;3.42;;;;;;;;;;5070204;28;20066;-60
2022/04/07 08:22:41;;;;;;;9.15;2.58;;;;;;;;;;5048981;28;20048;-60
2022/04/07 08:25:08;;;;;;;10.95;3.00;;;;;;;;;;5036969;28;20040;-60
2022/04/07 08:27:35;;;;;;;5.20;1.55;;;;;;;;;;5047782;28;20040;-60
2022/04/07 08:30:03;;;;;;;9.82;3.00;;;;;;;;;;5043557;28;20040;-60
2022/04/07 08:32:33;;;;;;;6.32;2.28;;;;;;;;;;5043702;28;20089;-60
2022/04/07 08:35:01;;;;;;;6.70;2.35;;;;;;;;;;5027853;28;20067;-60
2022/04/07 08:37:29;;;;;;;6.43;2.33;;;;;;;;;;5043532;28;20073;-60
2022/04/07 08:39:56;;;;;;;9.07;3.97;;;;;;;;;;5012249;28;20037;-60
2022/04/07 08:42:26;;;;;;;8.32;2.20;;;;;;;;;;5045323;28;20052;-60
2022/04/07 08:44:54;;;;;;;8.05;2.60;;;;;;;;;;5042267;28;20211;-60
2022/04/07 08:47:22;;;;;;;9.27;2.67;;;;;;;;;;5033600;28;20045;-60
2022/04/07 08:49:49;;;;;;;12.65;2.53;;;;;;;;;;5004185;28;20117;-61
2022/04/07 08:52:17;;;;;;;11.13;2.42;;;;;;;;;;5020996;28;20041;-62
2022/04/07 08:54:47;;;;;;;7.97;2.25;;;;;;;;;;5052412;28;20041;-60
2022/04/07 08:57:15;;;;;;;5.63;2.45;;;;;;;;;;5025592;28;20486;-60
2022/04/07 08:59:42;;;;;;;8.98;2.45;;;;;;;;;;5014117;28;20073;-61
2022/04/07 09:02:09;;;;;;;9.85;2.38;;;;;;;;;;5013921;28;20384;-60
2022/04/07 09:04:40;;;;;;;10.95;3.53;;;;;;;;;;5030743;28;20588;-60
2022/04/07 09:07:09;;;;;;;9.77;3.05;;;;;;;;;;5029474;28;20102;-60
2022/04/07 09:09:39;;;;;;;;;;;;;;;;;;5006006;28;20040;-60
2022/04/07 09:12:06;;;;;;;8.48;3.08;;;;;;;;;;5029553;28;20050;-61
2022/04/07 09:14:34;;;;;;;9.02;2.88;;;;;;;;;;5025493;28;20052;-60
2022/04/07 09:17:01;;;;;;;10.13;4.18;;;;;;;;;;5013655;28;20401;-60
2022/04/07 09:19:30;;;;;;;9.23;3.55;;;;;;;;;;5031027;28;20043;-60
2022/04/07 09:22:07;;;;;;;9.80;4.55;;;;;;;;;;5024641;28;20033;-60
2022/04/07 09:24:37;;;;;;;6.28;2.55;;;;;;;;;;5030949;28;20051;-60
2022/04/07 09:27:05;;;;;;;13.18;3.40;;;;;;;;;;5023008;28;20398;-60
2022/04/07 09:29:39;;;;;;;13.05;2.88;;;;;;;;;;5010969;28;20572;-60
2022/04/07 09:32:16;;;;;;;11.00;3.35;;;;;;;;;;5030396;28;20045;-60
2022/04/07 09:34:43;;;;;;;12.52;3.55;;;;;;;;;;5073127;28;20052;-60
2022/04/07 09:37:11;;;;;;;12.35;3.10;;;;;;;;;;5040869;28;20094;-60
2022/04/07 09:39:39;;;;;;;11.75;3.50;;;;;;;;;;5079225;28;20541;-60
2022/04/07 09:42:20;;;;;;;11.48;3.47;;;;;;;;;;5067256;28;20047;-61
2022/04/07 09:44:51;;;;;;;9.40;3.33;;;;;;;;;;5077127;28;20040;-61
2022/04/07 09:47:18;;;;;;;10.35;2.72;;;;;;;;;;5087990;28;20119;-61
2022/04/07 09:49:44;;;;;;;12.60;3.53;;;;;;;;;;5055273;28;20077;-64
2022/04/07 09:52:24;;;;;;;6.10;3.25;;;;;;;;;;5063896;28;20482;-64
2022/04/07 09:54:51;;;;;;;12.45;3.13;;;;;;;;;;5057726;28;20040;-64
2022/04/07 09:57:21;;;;;;;10.23;2.90;;;;;;;;;;5074021;28;20044;-64
2022/04/07 09:59:52;;;;;;;12.77;3.95;;;;;;;;;;5091067;28;20050;-65
2022/04/07 10:02:21;;;;;;;9.10;2.90;;;;;;;;;;5057399;28;20382;-66
2022/04/07 10:04:50;;;;;;;9.68;3.08;;;;;;;;;;5049437;28;20064;-64
2022/04/07 10:07:26;;;;;;;8.13;2.63;;;;;;;;;;5066017;28;20052;-65
2022/04/07 10:09:53;;;;;;;9.05;3.15;;;;;;;;;;5063493;28;20035;-64
2022/04/07 10:12:21;;;;;;;7.82;2.53;;;;;;;;;;5051229;28;20082;-63
2022/04/07 10:14:48;;;;;;;11.95;3.35;;;;;;;;;;5045781;28;20046;-64
2022/04/07 10:17:21;;;;;;;8.40;3.00;;;;;;;;;;5041488;28;20106;-64
2022/04/07 10:19:54;;;;;;;12.00;3.63;;;;;;;;;;5041186;28;20046;-64
2022/04/07 10:22:41;;;;;;;9.07;3.30;;;;;;;;;;5088217;28;20050;-65
2022/04/07 10:25:09;;;;;;;14.57;4.38;;;;;;;;;;5057096;28;20040;-65
2022/04/07 10:27:47;;;;;;;11.43;3.35;;;;;;;;;;5052317;28;20044;-64
2022/04/07 10:30:15;;;;;;;12.07;3.08;;;;;;;;;;5056852;28;20075;-64
2022/04/07 10:32:50;;;;;;;20.48;4.55;;;;;;;;;;5089868;28;20050;-65
2022/04/07 10:35:28;;;;;;;10.00;3.55;;;;;;;;;;5067389;28;20478;-65
2022/04/07 10:37:56;;;;;;;15.85;3.58;;;;;;;;;;5039311;28;20040;-64
2022/04/07 10:40:37;;;;;;;16.77;3.85;;;;;;;;;;5047590;28;20044;-64
2022/04/07 10:43:10;;;;;;;15.95;4.57;;;;;;;;;;5069982;28;20436;-64
2022/04/07 10:45:39;;;;;;;18.23;3.75;;;;;;;;;;5091162;28;20048;-64
2022/04/07 10:48:21;;;;;;;10.57;4.15;;;;;;;;;;5077605;28;20116;-64
2022/04/07 10:50:49;;;;;;;17.27;3.90;;;;;;;;;;5073626;28;20174;-63
2022/04/07 10:53:18;;;;;;;9.45;3.42;;;;;;;;;;5066192;28;20140;-63
2022/04/07 10:55:55;;;;;;;10.00;3.88;;;;;;;;;;5088344;28;20040;-64
2022/04/07 10:58:24;;;;;;;10.50;4.03;;;;;;;;;;5080374;28;20517;-63
2022/04/07 11:00:51;;;;;;;9.20;3.75;;;;;;;;;;5037005;28;20037;-64
2022/04/07 11:03:18;;;;;;;9.98;4.25;;;;;;;;;;5068964;28;20040;-65
2022/04/07 11:05:59;;;;;;;8.55;3.40;;;;;;;;;;5065727;28;20046;-64
2022/04/07 11:08:26;;;;;;;11.05;4.15;;;;;;;;;;5087112;28;20036;-64
2022/04/07 11:10:55;;;;;;;12.95;4.80;;;;;;;;;;5043592;28;20075;-61
2022/04/07 11:13:43;;;;;;;9.95;3.38;;;;;;;;;;5037603;28;20078;-61
2022/04/07 11:16:24;;;;;;;6.47;3.58;;;;;;;;;;5045424;28;20082;-60
2022/04/07 11:19:13;;;;;;;10.57;3.88;;;;;;;;;;5077958;28;20116;-61
2022/04/07 11:21:50;;;;;;;10.25;4.60;;;;;;;;;;5053914;28;20036;-60
2022/04/07 11:24:23;;;;;;;11.25;3.72;;;;;;;;;;5070762;28;20405;-60
2022/04/07 11:26:52;;;;;;;11.68;3.92;;;;;;;;;;5087784;28;20036;-60
2022/04/07 11:29:35;;;;;;;10.95;4.18;;;;;;;;;;5064819;28;20063;-60
2022/04/07 11:32:09;;;;;;;12.52;4.20;;;;;;;;;;5077683;28;20048;-61
2022/04/07 11:34:45;;;;;;;8.20;3.75;;;;;;;;;;5076801;28;20041;-60
2022/04/07 11:37:15;;;;;;;12.80;5.00;;;;;;;;;;5054143;28;20114;-60
2022/04/07 11:39:42;;;;;;;12.20;3.08;;;;;;;;;;5085010;28;20051;-60
2022/04/07 11:42:09;;;;;;;12.82;4.60;;;;;;;;;;5086189;28;20048;-61
2022/04/07 11:44:40;;;;;;;12.20;3.30;;;;;;;;;;5038204;28;20040;-60
2022/04/07 11:47:20;;;;;;;7.80;2.85;;;;;;;;;;5076840;28;20094;-60
2022/04/07 11:49:49;;;;;;;12.85;3.30;;;;;;;;;;5058809;28;20039;-61
2022/04/07 11:52:22;;;;;;;8.55;3.13;;;;;;;;;;5037694;28;20507;-61
2022/04/07 11:54:53;;;;;;;7.97;3.47;;;;;;;;;;5051622;28;20051;-61
2022/04/07 11:57:21;;;;;;;8.32;3.10;;;;;;;;;;5055002;28;20075;-61
2022/04/07 11:59:48;;;;;;;10.93;3.33;;;;;;;;;;5061576;28;20041;-60
2022/04/07 12:02:22;;;;;;;15.57;4.43;;;;;;;;;;5041446;28;20040;-60
2022/04/07 12:05:02;;;;;;;7.88;2.70;;;;;;;;;;5059722;28;20049;-61
2022/04/07 12:07:30;;;;;;;9.63;2.90;;;;;;;;;;5049114;28;20066;-61
2022/04/07 12:10:04;;;;;;;10.57;2.65;;;;;;;;;;5082065;28;20032;-60
2022/04/07 12:12:31;;;;;;;6.45;1.80;;;;;;;;;;5064606;28;20040;-60
2022/04/07 12:15:01;;;;;;;5.68;1.77;;;;;;;;;;5079715;28;20085;-62
2022/04/07 12:17:33;;;;;;;4.60;1.42;;;;;;;;;;5057279;28;20124;-60
2022/04/07 12:20:00;;;;;;;6.32;2.17;;;;;;;;;;5070825;28;20051;-62
2022/04/07 12:22:30;;;;;;;9.05;3.08;;;;;;;;;;5083168;28;20194;-62
2022/04/07 12:24:59;;;;;;;14.13;3.35;;;;;;;;;;5068023;28;20680;-61
2022/04/07 12:27:35;;;;;;;12.57;3.53;;;;;;;;;;5092937;28;20552;-61
2022/04/07 12:30:04;;;;;;;20.25;4.40;;;;;;;;;;5074799;28;20482;-62
2022/04/07 12:32:47;;;;;;;16.45;4.43;;;;;;;;;;5085857;28;20478;-61
2022/04/07 12:35:13;;;;;;;;;;;;;;;;;;5046855;28;20048;-60
2022/04/07 12:37:43;;;;;;;14.75;3.97;;;;;;;;;;5065596;28;20476;-61
2022/04/07 12:40:16;;;;;;;11.95;3.10;;;;;;;;;;5082614;28;20075;-60
2022/04/07 12:42:56;;;;;;;12.60;3.75;;;;;;;;;;5082354;28;20407;-60
2022/04/07 12:45:23;;;;;;;8.43;3.05;;;;;;;;;;5069091;28;20043;-60
2022/04/07 12:48:04;;;;;;;9.35;2.75;;;;;;;;;;5065742;28;20117;-61
2022/04/07 12:50:32;;;;;;;12.30;3.53;;;;;;;;;;5088262;28;20044;-61
2022/04/07 12:52:59;;;;;;;15.75;3.70;;;;;;;;;;5082907;28;20072;-62
2022/04/07 12:55:36;;;;;;;11.40;3.63;;;;;;;;;;5064043;28;20048;-62
2022/04/07 12:58:03;;;;;;;9.20;2.72;;;;;;;;;;5086262;28;20044;-60
2022/04/07 13:00:31;;;;;;;8.55;2.42;;;;;;;;;;5075618;28;20131;-60
2022/04/07 13:03:01;;;;;;;7.18;1.58;;;;;;;;;;5085532;28;20401;-61
2022/04/07 13:05:32;;;;;;;6.85;2.05;;;;;;;;;;5071044;28;20374;-61
2022/04/07 13:08:05;;;;;;;13.57;2.65;;;;;;;;;;5070856;28;20109;-60
2022/04/07 13:10:33;;;;;;;6.97;3.75;;;;;;;;;;5088822;28;20123;-60
2022/04/07 13:13:00;;;;;;;8.82;2.38;;;;;;;;;;5083931;28;20032;-60
2022/04/07 13:15:27;;;;;;;6.93;2.85;;;;;;;;;;5048232;28;20050;-60
2022/04/07 13:17:54;;;;;;;8.27;3.00;;;;;;;;;;5068932;28;20440;-60
2022/04/07 13:20:22;;;;;;;11.65;3.75;;;;;;;;;;5068249;28;20117;-60
2022/04/07 13:22:49;;;;;;;9.02;2.67;;;;;;;;;;5057880;28;20044;-60
2022/04/07 13:25:15;;;;;;;8.15;3.30;;;;;;;;;;5074826;28;20050;-60
2022/04/07 13:27:42;;;;;;;8.50;2.35;;;;;;;;;;5073951;28;20089;-60
2022/04/07 13:30:12;;;;;;;9.00;2.95;;;;;;;;;;5057234;28;20097;-60
2022/04/07 13:32:41;;;;;;;6.47;2.03;;;;;;;;;;5071043;28;20097;-61
2022/04/07 13:35:10;;;;;;;5.53;2.00;;;;;;;;;;5062728;28;20102;-59
2022/04/07 13:37:36;;;;;;;8.43;2.92;;;;;;;;;;5086489;28;20132;-60
2022/04/07 13:40:04;;;;;;;8.20;1.67;;;;;;;;;;5079426;28;20534;-58
2022/04/07 13:42:34;;;;;;;5.03;2.20;;;;;;;;;;5079480;28;20507;-59
2022/04/07 13:45:00;;;;;;;9.18;3.65;;;;;;;;;;5049752;28;20080;-60
2022/04/07 13:47:27;;;;;;;7.68;2.15;;;;;;;;;;5080973;28;20049;-60
2022/04/07 13:49:54;;;;;;;7.95;2.65;;;;;;;;;;5034553;28;20549;-60
2022/04/07 13:52:21;;;;;;;6.47;3.20;;;;;;;;;;5051836;28;20539;-60
2022/04/07 13:54:48;;;;;;;5.32;2.40;;;;;;;;;;5041119;28;20044;-60
2022/04/07 13:57:14;;;;;;;4.55;2.65;;;;;;;;;;5091797;28;20432;-60
2022/04/07 13:59:41;;;;;;;8.15;2.72;;;;;;;;;;5072252;28;20485;-60
2022/04/07 14:02:08;;;;;;;10.30;2.90;;;;;;;;;;5084987;28;20094;-60
2022/04/07 14:04:35;;;;;;;14.63;3.63;;;;;;;;;;5041278;28;20036;-60
2022/04/07 14:07:03;;;;;;;11.60;3.45;;;;;;;;;;5070280;28;20036;-62
2022/04/07 14:09:31;;;;;;;9.30;3.72;;;;;;;;;;5053872;28;20051;-62
2022/04/07 14:12:00;;;;;;;9.23;3.38;;;;;;;;;;5083289;28;20044;-63
2022/04/07 14:14:31;;;;;;;10.32;4.32;;;;;;;;;;5057126;28;20128;-59
2022/04/07 14:16:59;;;;;;;8.98;2.97;;;;;;;;;;5061551;28;20494;-59
2022/04/07 14:19:26;;;;;;;12.10;3.80;;;;;;;;;;5087383;28;20539;-59
2022/04/07 14:21:53;;;;;;;9.95;4.10;;;;;;;;;;5053800;28;20146;-63
2022/04/07 14:24:25;;;;;;;11.23;3.38;;;;;;;;;;5041220;28;20132;-64
2022/04/07 14:26:58;;;;;;;15.10;3.60;;;;;;;;;;5045481;28;20037;-64
2022/04/07 14:29:25;;;;;;;14.57;5.20;;;;;;;;;;5045138;28;20497;-63
2022/04/07 14:31:52;;;;;;;11.52;4.85;;;;;;;;;;5076145;28;20044;-59
2022/04/07 14:34:20;;;;;;;13.02;3.80;;;;;;;;;;5081216;28;20056;-61
2022/04/07 14:36:48;;;;;;;10.15;3.92;;;;;;;;;;5054762;28;20093;-63
2022/04/07 14:39:20;;;;;;;13.55;4.00;;;;;;;;;;5084810;28;20051;-64
2022/04/07 14:41:46;;;;;;;9.98;3.55;;;;;;;;;;5082138;28;20561;-60
2022/04/07 14:44:14;;;;;;;12.23;4.03;;;;;;;;;;5069298;28;20047;-62
2022/04/07 14:46:45;;;;;;;8.40;3.95;;;;;;;;;;5078049;28;20036;-62